CheckWX is a tool to help pilots better visualize weather data.  It is not intended as a substitute for an official pre-flight weather briefing.

22:15:16 UTC

CYYD METAR
Smithers Airport
Smithers, Canada
Current

1 hour ago

CYYD 152100Z 20004KT 180V280 25SM FEW030 SCT055TCU BKN230 19/12 A3000 RMK SC1TCU3CI3 SLP164 DENSITY ALT 2500FT
Observed
Jul-15 @ 21:00 UTC
Wind
  • 200° at 4 KTS
Visibility
25 SM
Flight Rules
VFR
Cloud Levels
  • Few at 3,000' AGL
  • Scattered at 5,500' AGL
  • Broken at 23,000' AGL
Temperature
19°C / 66°F
Dewpoint
12°C / 54°F
Humidity
64%
Altimeter
30" Hg
Pressure
1015.92 hPa
Previous

2 hours ago

CYYD 152000Z 18005KT 150V240 25SM FEW025 SCT055TCU BKN130 BKN230 20/13 A3002 RMK SC1TCU3AC3CI1 SC TR SLP171 DENSITY ALT 2600FT
Observed
Jul-15 @ 20:00 UTC
Wind
  • 180° at 5 KTS
Visibility
25 SM
Flight Rules
VFR
Cloud Levels
  • Few at 2,500' AGL
  • Scattered at 5,500' AGL
  • Broken at 13,000' AGL
  • Broken at 23,000' AGL
Temperature
20°C / 68°F
Dewpoint
13°C / 55°F
Humidity
64%
Altimeter
30.02" Hg
Pressure
1016.62 hPa
Previous

3 hours ago

CYYD 151900Z 00000KT 25SM FEW015 BKN055 BKN130 17/12 A3004 RMK SC1CU4AC2 SLP176 DENSITY ALT 2300FT
Observed
Jul-15 @ 19:00 UTC
Visibility
25 SM
Flight Rules
VFR
Cloud Levels
  • Few at 1,500' AGL
  • Broken at 5,500' AGL
  • Broken at 13,000' AGL
Temperature
17°C / 63°F
Dewpoint
12°C / 54°F
Humidity
73%
Altimeter
30.04" Hg
Pressure
1017.32 hPa